createdAt,value
2023-02-19T00:00:50.261Z,16.90
2023-02-19T00:02:53.214Z,15.83
2023-02-19T00:04:56.143Z,13.47
2023-02-19T00:06:59.155Z,18.13
2023-02-19T00:09:02.776Z,15.07
2023-02-19T00:11:06.977Z,17.03
2023-02-19T00:13:09.971Z,15.17
2023-02-19T00:15:12.857Z,16.80
2023-02-19T00:17:17.102Z,16.60
2023-02-19T00:19:21.941Z,15.90
2023-02-19T00:21:25.468Z,19.83
2023-02-19T00:23:29.350Z,22.10
2023-02-19T00:25:32.226Z,21.30
2023-02-19T00:27:35.140Z,27.33
2023-02-19T00:29:38.067Z,21.30
2023-02-19T00:31:41.494Z,19.20
2023-02-19T00:33:45.921Z,24.10
2023-02-19T00:35:48.790Z,20.00
2023-02-19T00:37:52.058Z,23.90
2023-02-19T00:39:54.954Z,20.13
2023-02-19T00:41:59.392Z,27.90
2023-02-19T00:44:03.813Z,24.30
2023-02-19T00:46:06.745Z,25.57
2023-02-19T00:48:09.699Z,25.30
2023-02-19T00:50:13.953Z,26.03
2023-02-19T00:52:17.227Z,27.53
2023-02-19T00:54:20.510Z,28.33
2023-02-19T00:56:24.194Z,32.17
2023-02-19T00:58:27.442Z,28.27
2023-02-19T01:00:34.722Z,31.30
2023-02-19T01:02:37.959Z,26.10
2023-02-19T01:04:40.931Z,27.97
2023-02-19T01:06:45.416Z,31.27
2023-02-19T01:08:49.150Z,29.53
2023-02-19T01:10:52.160Z,28.47
2023-02-19T01:12:56.227Z,34.67
2023-02-19T01:14:59.104Z,26.83
2023-02-19T01:17:02.293Z,26.10
2023-02-19T01:19:05.509Z,20.63
2023-02-19T01:21:10.135Z,22.23
2023-02-19T01:23:15.398Z,23.83
2023-02-19T01:25:18.280Z,19.00
2023-02-19T01:27:21.741Z,16.10
2023-02-19T01:29:24.638Z,15.37
2023-02-19T01:31:28.182Z,15.90
2023-02-19T01:33:31.345Z,16.67
2023-02-19T01:35:34.594Z,15.90
2023-02-19T01:37:37.463Z,13.57
2023-02-19T01:39:41.715Z,15.70
2023-02-19T01:41:45.352Z,15.67
2023-02-19T01:43:58.150Z,19.80
2023-02-19T01:46:01.418Z,16.00
2023-02-19T01:48:08.308Z,16.73
2023-02-19T01:50:11.816Z,17.80
2023-02-19T01:52:17.114Z,16.90
2023-02-19T01:54:21.660Z,18.10
2023-02-19T01:56:27.115Z,17.27
2023-02-19T01:58:32.876Z,19.20
2023-02-19T02:00:35.954Z,23.30
2023-02-19T02:02:39.794Z,23.63
2023-02-19T02:04:42.723Z,24.73
2023-02-19T02:06:49.604Z,26.33
2023-02-19T02:09:11.733Z,28.30
2023-02-19T02:11:14.630Z,30.50
2023-02-19T02:13:19.259Z,27.33
2023-02-19T02:15:24.116Z,30.03
2023-02-19T02:17:29.377Z,33.03
2023-02-19T02:19:45.651Z,29.50
2023-02-19T02:22:00.308Z,35.10
2023-02-19T02:24:13.867Z,33.07
2023-02-19T02:26:26.514Z,32.70
2023-02-19T02:28:42.671Z,32.47
2023-02-19T02:30:48.829Z,31.23
2023-02-19T02:32:56.241Z,33.40
2023-02-19T02:35:01.458Z,31.23
2023-02-19T02:37:08.031Z,28.00
2023-02-19T02:39:14.308Z,26.27
2023-02-19T02:41:17.603Z,26.23
2023-02-19T02:43:20.546Z,25.90
2023-02-19T02:45:36.890Z,26.53
2023-02-19T02:48:00.617Z,26.90
2023-02-19T02:50:06.804Z,24.83
2023-02-19T02:52:35.465Z,28.47
2023-02-19T02:54:55.832Z,25.63
2023-02-19T02:56:59.583Z,25.93
2023-02-19T02:59:07.932Z,26.80
2023-02-19T03:01:30.716Z,25.20
2023-02-19T03:03:36.403Z,29.60
2023-02-19T03:05:54.437Z,28.03
2023-02-19T03:08:00.229Z,32.43
2023-02-19T03:10:04.804Z,32.40
2023-02-19T03:12:29.845Z,26.97
2023-02-19T03:14:54.325Z,33.03
2023-02-19T03:17:17.418Z,30.50
2023-02-19T03:19:23.460Z,26.27
2023-02-19T03:21:27.425Z,31.47
2023-02-19T03:23:47.194Z,31.23
2023-02-19T03:26:05.791Z,36.17
2023-02-19T03:28:19.279Z,37.47
2023-02-19T03:30:24.743Z,40.80
2023-02-19T03:32:31.223Z,41.03
2023-02-19T03:34:37.417Z,48.00
2023-02-19T03:36:43.683Z,36.10
2023-02-19T03:38:50.411Z,35.53
2023-02-19T03:40:57.613Z,36.47
2023-02-19T03:43:04.620Z,38.03
2023-02-19T03:45:16.453Z,39.60
2023-02-19T03:47:24.571Z,41.37
2023-02-19T03:49:32.163Z,42.27
2023-02-19T03:51:40.371Z,30.60
2023-02-19T03:53:50.918Z,35.93
2023-02-19T03:56:04.648Z,30.63
2023-02-19T03:58:13.199Z,40.37
2023-02-19T04:00:19.451Z,28.70
2023-02-19T04:02:29.199Z,36.57
2023-02-19T04:04:33.910Z,38.57
2023-02-19T04:06:38.513Z,43.53
2023-02-19T04:08:44.448Z,27.33
2023-02-19T04:10:48.365Z,30.67
2023-02-19T04:12:55.618Z,38.33
2023-02-19T04:15:01.113Z,27.03
2023-02-19T04:17:09.918Z,32.80
2023-02-19T04:19:13.783Z,33.60
2023-02-19T04:21:16.955Z,27.70
2023-02-19T04:23:24.534Z,36.30
2023-02-19T04:25:28.469Z,22.33
2023-02-19T04:27:31.400Z,31.40
2023-02-19T04:29:34.227Z,33.10
2023-02-19T04:31:37.547Z,30.20
2023-02-19T04:33:40.423Z,22.70
2023-02-19T04:35:43.519Z,23.40
2023-02-19T04:37:46.330Z,19.00
2023-02-19T04:39:50.532Z,25.97
2023-02-19T04:41:53.602Z,22.70
2023-02-19T04:43:56.785Z,22.57
2023-02-19T04:46:01.697Z,17.70
2023-02-19T04:48:04.879Z,29.30
2023-02-19T04:50:08.019Z,21.17
2023-02-19T04:52:11.070Z,25.00
2023-02-19T04:54:14.244Z,28.37
2023-02-19T04:56:18.826Z,20.57
2023-02-19T04:58:22.525Z,21.43
2023-02-19T05:00:25.341Z,21.47
2023-02-19T05:02:28.569Z,20.03
2023-02-19T05:04:31.617Z,21.60
2023-02-19T05:06:35.103Z,21.43
2023-02-19T05:08:38.070Z,23.83
2023-02-19T05:10:40.930Z,29.50
2023-02-19T05:12:45.385Z,26.67
2023-02-19T05:14:48.288Z,21.77
2023-02-19T05:16:51.731Z,32.60
2023-02-19T05:18:54.819Z,20.67
2023-02-19T05:20:58.474Z,26.30
2023-02-19T05:23:01.315Z,34.50
2023-02-19T05:25:04.500Z,26.33
2023-02-19T05:27:07.354Z,32.87
2023-02-19T05:29:11.573Z,25.43
2023-02-19T05:31:15.377Z,21.60
2023-02-19T05:33:19.811Z,21.60
2023-02-19T05:35:22.754Z,19.87
2023-02-19T05:37:25.737Z,20.37
2023-02-19T05:39:29.024Z,24.63
2023-02-19T05:41:32.074Z,23.37
2023-02-19T05:43:36.681Z,18.37
2023-02-19T05:45:41.466Z,20.47
2023-02-19T05:47:44.722Z,24.20
2023-02-19T05:49:47.867Z,23.90
2023-02-19T05:51:52.460Z,24.63
2023-02-19T05:53:59.646Z,25.87
2023-02-19T05:56:02.635Z,22.30
2023-02-19T05:58:06.391Z,27.27
2023-02-19T06:00:12.295Z,28.27
2023-02-19T06:02:16.478Z,22.13
2023-02-19T06:04:27.370Z,22.10
2023-02-19T06:06:30.776Z,21.83
2023-02-19T06:08:33.863Z,24.23
2023-02-19T06:10:37.860Z,29.23
2023-02-19T06:12:40.844Z,26.47
2023-02-19T06:14:44.035Z,27.60
2023-02-19T06:16:46.929Z,23.73
2023-02-19T06:18:51.431Z,23.43
2023-02-19T06:20:54.263Z,27.87
2023-02-19T06:22:57.196Z,22.83
2023-02-19T06:25:00.367Z,30.20
2023-02-19T06:27:06.768Z,23.93
2023-02-19T06:29:09.652Z,29.13
2023-02-19T06:31:15.484Z,23.13
2023-02-19T06:33:18.591Z,19.40
2023-02-19T06:35:23.262Z,25.93
2023-02-19T06:37:26.084Z,25.43
2023-02-19T06:39:29.015Z,24.50
2023-02-19T06:41:31.954Z,24.47
2023-02-19T06:43:35.537Z,22.27
2023-02-19T06:45:38.373Z,20.87
2023-02-19T06:47:41.257Z,21.47
2023-02-19T06:49:44.119Z,23.47
2023-02-19T06:51:48.397Z,23.10
2023-02-19T06:53:51.593Z,20.83
2023-02-19T06:55:58.317Z,25.40
2023-02-19T06:58:01.405Z,21.70
2023-02-19T07:00:05.361Z,17.87
2023-02-19T07:02:08.645Z,22.03
2023-02-19T07:04:11.929Z,28.33
2023-02-19T07:06:14.940Z,16.43
2023-02-19T07:08:19.616Z,22.67
2023-02-19T07:10:22.601Z,21.20
2023-02-19T07:12:25.515Z,25.57
2023-02-19T07:14:29.687Z,23.77
2023-02-19T07:16:32.718Z,16.90
2023-02-19T07:18:36.133Z,22.00
2023-02-19T07:20:38.995Z,22.33
2023-02-19T07:22:42.065Z,21.80
2023-02-19T07:24:47.952Z,23.53
2023-02-19T07:26:50.951Z,21.10
2023-02-19T07:28:54.438Z,24.00
2023-02-19T07:31:01.373Z,20.83
2023-02-19T07:33:04.447Z,28.20
2023-02-19T07:35:08.305Z,20.77
2023-02-19T07:37:11.140Z,17.70
2023-02-19T07:39:15.694Z,18.70
2023-02-19T07:41:20.305Z,15.10
2023-02-19T07:43:24.376Z,26.40
2023-02-19T07:45:53.056Z,20.40
2023-02-19T07:47:55.965Z,23.67
2023-02-19T07:49:58.787Z,17.83
2023-02-19T07:52:01.759Z,22.70
2023-02-19T07:54:04.842Z,19.80
2023-02-19T07:56:08.901Z,16.80
2023-02-19T07:58:13.392Z,19.00
2023-02-19T08:00:16.936Z,16.93
2023-02-19T08:02:38.944Z,24.00
2023-02-19T08:04:41.812Z,18.97
2023-02-19T08:06:44.959Z,25.00
2023-02-19T08:08:47.935Z,17.60
2023-02-19T08:11:08.590Z,15.23
2023-02-19T08:13:19.601Z,21.90
2023-02-19T08:15:22.584Z,18.13
2023-02-19T08:17:25.538Z,18.27
2023-02-19T08:19:28.469Z,19.97
2023-02-19T08:21:33.427Z,21.17
2023-02-19T08:23:37.210Z,17.40
2023-02-19T08:25:40.564Z,20.40
2023-02-19T08:27:43.590Z,17.33
2023-02-19T08:29:47.805Z,17.30
2023-02-19T08:31:50.758Z,25.70
2023-02-19T08:33:53.733Z,20.90
2023-02-19T08:35:56.640Z,20.20
2023-02-19T08:38:00.139Z,20.60
2023-02-19T08:40:03.163Z,19.00
2023-02-19T08:42:09.453Z,16.20
2023-02-19T08:44:12.265Z,14.77
2023-02-19T08:46:16.631Z,16.40
2023-02-19T08:48:19.706Z,17.50
2023-02-19T08:50:22.908Z,18.50
2023-02-19T08:52:25.717Z,19.37
2023-02-19T08:54:28.540Z,16.20
2023-02-19T08:56:31.383Z,20.50
2023-02-19T08:58:34.545Z,13.00
2023-02-19T09:00:37.514Z,13.00
2023-02-19T09:02:41.704Z,15.50
2023-02-19T09:04:49.804Z,14.10
2023-02-19T09:06:52.951Z,11.73
2023-02-19T09:08:55.804Z,16.10
2023-02-19T09:10:59.701Z,17.43
2023-02-19T09:13:02.740Z,18.07
2023-02-19T09:15:06.105Z,18.20
2023-02-19T09:17:10.514Z,11.67
2023-02-19T09:19:14.821Z,13.30
2023-02-19T09:21:17.683Z,28.50
2023-02-19T09:23:20.501Z,15.90
2023-02-19T09:25:23.367Z,21.87
2023-02-19T09:27:26.243Z,13.80
2023-02-19T09:29:30.152Z,16.10
2023-02-19T09:31:35.246Z,14.87
2023-02-19T09:33:38.476Z,27.00
2023-02-19T09:35:42.876Z,13.03
2023-02-19T09:37:45.932Z,19.30
2023-02-19T09:39:48.822Z,22.43
2023-02-19T09:41:53.678Z,22.23
2023-02-19T09:43:56.919Z,17.77
2023-02-19T09:46:04.538Z,20.00
2023-02-19T09:48:09.796Z,24.63
2023-02-19T09:50:16.048Z,17.70
2023-02-19T09:52:26.797Z,22.80
2023-02-19T09:54:31.706Z,16.80
2023-02-19T09:56:34.996Z,24.47
2023-02-19T09:58:44.239Z,18.77
2023-02-19T10:00:49.142Z,20.00
2023-02-19T10:02:53.610Z,17.77
2023-02-19T10:04:56.487Z,18.10
2023-02-19T10:07:03.627Z,24.40
2023-02-19T10:09:20.212Z,17.03
2023-02-19T10:11:24.895Z,16.23
2023-02-19T10:13:32.560Z,19.87
2023-02-19T10:15:37.897Z,19.87
2023-02-19T10:17:40.764Z,18.50
2023-02-19T10:19:44.056Z,14.67
2023-02-19T10:21:47.505Z,14.33
2023-02-19T10:23:53.514Z,16.37
2023-02-19T10:25:59.282Z,15.07
2023-02-19T10:28:02.919Z,12.90
2023-02-19T10:30:07.545Z,13.47
2023-02-19T10:32:14.381Z,20.10
2023-02-19T10:34:22.097Z,17.23
2023-02-19T10:36:31.899Z,16.50
2023-02-19T10:38:37.880Z,15.20
2023-02-19T10:40:45.051Z,16.27
2023-02-19T10:42:50.558Z,14.17
2023-02-19T10:44:58.702Z,13.70
2023-02-19T10:47:02.228Z,17.50
2023-02-19T10:49:06.752Z,16.33
2023-02-19T10:51:11.078Z,10.10
2023-02-19T10:53:23.445Z,12.97
2023-02-19T10:55:29.551Z,12.47
2023-02-19T10:57:33.382Z,14.30
2023-02-19T10:59:37.939Z,15.80
2023-02-19T11:01:54.774Z,13.20
2023-02-19T11:04:18.234Z,11.27
2023-02-19T11:06:22.881Z,10.77
2023-02-19T11:08:25.858Z,13.00
2023-02-19T11:10:30.184Z,12.87
2023-02-19T11:12:34.781Z,9.73
2023-02-19T11:14:42.808Z,10.93
2023-02-19T11:16:47.871Z,14.17
2023-02-19T11:18:57.256Z,9.27
2023-02-19T11:21:02.543Z,12.30
2023-02-19T11:23:14.617Z,7.10
2023-02-19T11:25:21.688Z,4.80
2023-02-19T11:27:25.956Z,4.83
2023-02-19T11:29:34.657Z,4.00
2023-02-19T11:31:39.230Z,4.27
2023-02-19T11:33:45.323Z,2.73
2023-02-19T11:35:48.849Z,3.63
2023-02-19T11:37:56.848Z,2.67
2023-02-19T11:39:59.960Z,2.70
2023-02-19T11:42:22.951Z,2.77
2023-02-19T11:44:33.010Z,3.97
2023-02-19T11:46:41.854Z,2.53
2023-02-19T11:48:54.726Z,6.60
2023-02-19T11:51:10.242Z,2.67
2023-02-19T11:53:18.238Z,2.20
2023-02-19T11:55:26.795Z,2.30
2023-02-19T11:57:39.447Z,4.17
2023-02-19T11:59:46.928Z,2.50
2023-02-19T12:02:12.798Z,3.07
2023-02-19T12:04:43.913Z,2.20
2023-02-19T12:06:54.421Z,2.80
2023-02-19T12:09:17.761Z,3.37
2023-02-19T12:11:41.836Z,2.20
2023-02-19T12:13:57.195Z,3.00
2023-02-19T12:16:11.358Z,2.60
2023-02-19T12:18:28.673Z,4.17
2023-02-19T12:20:36.190Z,3.03
2023-02-19T12:22:42.950Z,3.10
2023-02-19T12:25:05.590Z,4.10
2023-02-19T12:27:20.512Z,3.90
2023-02-19T12:29:45.426Z,4.27
2023-02-19T12:32:07.642Z,3.67
2023-02-19T12:34:31.698Z,3.43
2023-02-19T12:36:39.152Z,5.80
2023-02-19T12:38:45.469Z,18.60
2023-02-19T12:40:59.051Z,20.03
2023-02-19T12:43:11.208Z,4.93
2023-02-19T12:45:20.175Z,3.20
2023-02-19T12:47:26.113Z,3.73
2023-02-19T12:49:33.485Z,2.73
2023-02-19T12:51:40.686Z,4.63
2023-02-19T12:53:47.942Z,3.80
2023-02-19T12:55:51.139Z,2.87
2023-02-19T12:57:55.143Z,1.80
2023-02-19T13:00:03.627Z,1.80
2023-02-19T13:02:13.886Z,4.73
2023-02-19T13:04:26.416Z,2.10
2023-02-19T13:06:37.044Z,3.13
2023-02-19T13:09:04.721Z,2.40
2023-02-19T13:11:08.093Z,2.60
2023-02-19T13:13:15.258Z,2.27
2023-02-19T13:15:22.886Z,2.47
2023-02-19T13:17:28.893Z,2.77
2023-02-19T13:19:32.273Z,2.00
2023-02-19T13:21:55.852Z,2.47
2023-02-19T13:24:03.308Z,2.03
2023-02-19T13:26:24.727Z,8.70
2023-02-19T13:28:48.631Z,2.90
2023-02-19T13:31:08.759Z,3.57
2023-02-19T13:33:27.005Z,3.73
2023-02-19T13:35:52.606Z,3.27
2023-02-19T13:38:01.796Z,3.17
2023-02-19T13:40:20.792Z,3.63
2023-02-19T13:42:26.878Z,3.30
2023-02-19T13:44:31.463Z,3.97
2023-02-19T13:46:37.860Z,4.30
2023-02-19T13:48:43.366Z,6.07
2023-02-19T13:50:46.231Z,5.80
2023-02-19T13:52:49.136Z,6.30
2023-02-19T13:54:53.420Z,7.03
2023-02-19T13:57:48.830Z,5.17
2023-02-19T13:59:52.123Z,8.50
2023-02-19T14:02:14.447Z,10.90
2023-02-19T14:04:21.018Z,9.77
2023-02-19T14:06:24.160Z,9.53
2023-02-19T14:08:49.252Z,8.13
2023-02-19T14:10:57.648Z,7.73
2023-02-19T14:13:00.614Z,7.47
2023-02-19T14:15:44.583Z,8.27
2023-02-19T14:17:47.568Z,10.83
2023-02-19T14:19:55.875Z,7.70
2023-02-19T14:21:59.104Z,14.20
2023-02-19T14:24:03.016Z,14.63
2023-02-19T14:26:08.151Z,14.10
2023-02-19T14:28:30.711Z,11.13
2023-02-19T14:30:35.744Z,15.00
2023-02-19T14:32:42.192Z,12.80
2023-02-19T14:34:46.728Z,19.90
2023-02-19T14:36:51.816Z,14.70
2023-02-19T14:38:56.568Z,18.83
2023-02-19T14:40:59.845Z,13.20
2023-02-19T14:43:05.960Z,17.57
2023-02-19T14:45:09.918Z,16.80
2023-02-19T14:47:15.751Z,17.17
2023-02-19T14:49:22.370Z,16.43
2023-02-19T14:51:32.726Z,14.73
2023-02-19T14:53:43.478Z,11.87
2023-02-19T14:55:47.941Z,12.50
2023-02-19T14:57:51.594Z,13.63
2023-02-19T14:59:58.625Z,12.17
2023-02-19T15:02:03.646Z,14.00
2023-02-19T15:04:07.321Z,13.03
2023-02-19T15:06:16.404Z,13.57
2023-02-19T15:08:24.018Z,13.10
2023-02-19T15:10:28.335Z,10.90
2023-02-19T15:12:34.843Z,13.10
2023-02-19T15:14:37.708Z,9.47
2023-02-19T15:16:41.942Z,9.70
2023-02-19T15:18:46.285Z,9.37
2023-02-19T15:20:49.846Z,9.70
2023-02-19T15:22:53.492Z,8.77
2023-02-19T15:24:56.477Z,10.10
2023-02-19T15:26:59.432Z,10.17
2023-02-19T15:29:04.503Z,7.93
2023-02-19T15:31:14.962Z,9.03
2023-02-19T15:33:20.708Z,11.30
2023-02-19T15:35:25.158Z,8.47
2023-02-19T15:37:29.471Z,9.10
2023-02-19T15:39:39.136Z,11.20
2023-02-19T15:41:45.028Z,11.20
2023-02-19T15:43:51.229Z,12.90
2023-02-19T15:45:56.627Z,10.33
2023-02-19T15:48:01.615Z,12.13
2023-02-19T15:50:09.581Z,14.80
2023-02-19T15:52:18.875Z,13.70
2023-02-19T15:54:27.182Z,12.47
2023-02-19T15:56:35.923Z,12.20
2023-02-19T15:58:42.801Z,13.80
2023-02-19T16:00:48.466Z,11.70
2023-02-19T16:02:51.730Z,13.80
2023-02-19T16:04:54.596Z,12.03
2023-02-19T16:06:59.792Z,12.20
2023-02-19T16:09:04.626Z,17.53
2023-02-19T16:11:08.821Z,13.73
2023-02-19T16:13:12.917Z,12.37
2023-02-19T16:15:16.293Z,19.30
2023-02-19T16:17:21.264Z,16.17
2023-02-19T16:19:28.223Z,13.77
2023-02-19T16:21:31.398Z,13.50
2023-02-19T16:23:35.639Z,14.57
2023-02-19T16:25:42.753Z,17.73
2023-02-19T16:27:45.622Z,16.30
2023-02-19T16:29:51.757Z,12.13
2023-02-19T16:31:57.911Z,15.93
2023-02-19T16:34:17.250Z,12.80
2023-02-19T16:36:41.559Z,17.50
2023-02-19T16:39:01.188Z,15.07
2023-02-19T16:41:13.239Z,19.97
2023-02-19T16:43:31.237Z,16.83
2023-02-19T16:45:34.409Z,14.43
2023-02-19T16:47:41.614Z,20.10
2023-02-19T16:49:44.956Z,18.50
2023-02-19T16:51:48.384Z,16.13
2023-02-19T16:53:51.330Z,14.07
2023-02-19T16:55:55.539Z,15.67
2023-02-19T16:57:58.448Z,11.80
2023-02-19T17:00:01.280Z,9.80
2023-02-19T17:02:05.145Z,16.10
2023-02-19T17:04:09.484Z,11.80
2023-02-19T17:06:12.825Z,21.47
2023-02-19T17:08:33.871Z,12.47
2023-02-19T17:10:36.829Z,12.60
2023-02-19T17:12:41.061Z,14.20
2023-02-19T17:14:43.995Z,10.53
2023-02-19T17:16:47.056Z,11.70
2023-02-19T17:18:50.376Z,8.10
2023-02-19T17:20:56.502Z,7.60
2023-02-19T17:22:59.502Z,9.27
2023-02-19T17:25:02.446Z,9.40
2023-02-19T17:27:05.394Z,8.40
2023-02-19T17:29:14.337Z,8.30
2023-02-19T17:31:17.841Z,6.97
2023-02-19T17:33:20.847Z,12.40
2023-02-19T17:35:23.793Z,11.03
2023-02-19T17:37:26.716Z,12.50
2023-02-19T17:39:29.595Z,15.53
2023-02-19T17:41:32.525Z,11.93
2023-02-19T17:43:35.828Z,11.23
2023-02-19T17:45:40.208Z,9.87
2023-02-19T17:47:43.185Z,12.60
2023-02-19T17:49:46.107Z,10.37
2023-02-19T17:51:48.923Z,11.93
2023-02-19T17:53:51.812Z,12.60
2023-02-19T17:55:54.764Z,13.10
2023-02-19T17:57:57.751Z,9.50
2023-02-19T18:00:00.669Z,10.80
2023-02-19T18:02:05.035Z,10.30
2023-02-19T18:04:08.260Z,14.00
2023-02-19T18:06:11.354Z,9.67
2023-02-19T18:08:14.904Z,9.30
2023-02-19T18:10:19.442Z,13.20
2023-02-19T18:12:22.410Z,8.33
2023-02-19T18:14:25.358Z,8.77
2023-02-19T18:16:28.326Z,10.47
2023-02-19T18:18:33.031Z,9.00
2023-02-19T18:20:36.092Z,9.43
2023-02-19T18:22:41.395Z,8.13
2023-02-19T18:24:46.899Z,6.30
2023-02-19T18:26:51.181Z,8.33
2023-02-19T18:28:54.157Z,8.63
2023-02-19T18:30:57.206Z,9.87
2023-02-19T18:33:00.109Z,8.53
2023-02-19T18:35:05.518Z,11.40
2023-02-19T18:37:08.433Z,10.30
2023-02-19T18:39:11.665Z,13.47
2023-02-19T18:41:19.798Z,15.00
2023-02-19T18:43:23.134Z,13.70
2023-02-19T18:45:26.106Z,15.50
2023-02-19T18:47:29.459Z,16.63
2023-02-19T18:49:32.504Z,22.53
2023-02-19T18:51:36.788Z,15.83
2023-02-19T18:53:39.806Z,19.27
2023-02-19T18:55:42.945Z,13.93
2023-02-19T18:57:46.645Z,19.77
2023-02-19T18:59:49.716Z,15.17
2023-02-19T19:01:53.626Z,14.63
2023-02-19T19:03:56.577Z,10.57
2023-02-19T19:05:59.687Z,8.80
2023-02-19T19:08:03.873Z,6.10
2023-02-19T19:10:08.392Z,5.20
2023-02-19T19:12:11.450Z,6.83
2023-02-19T19:14:14.387Z,4.20
2023-02-19T19:16:17.214Z,8.60
2023-02-19T19:18:20.086Z,6.07
2023-02-19T19:20:23.911Z,6.23
2023-02-19T19:22:26.801Z,9.50
2023-02-19T19:24:31.041Z,7.33
2023-02-19T19:26:34.685Z,4.47
2023-02-19T19:28:40.675Z,7.87
2023-02-19T19:30:43.888Z,8.57
2023-02-19T19:32:48.885Z,5.43
2023-02-19T19:34:51.749Z,6.13
2023-02-19T19:36:54.608Z,5.40
2023-02-19T19:38:57.446Z,8.90
2023-02-19T19:41:01.692Z,3.80
2023-02-19T19:43:04.618Z,3.10
2023-02-19T19:45:09.381Z,5.27
2023-02-19T19:47:12.279Z,7.47
2023-02-19T19:49:18.661Z,11.43
2023-02-19T19:51:21.552Z,12.80
2023-02-19T19:53:24.404Z,5.60
2023-02-19T19:55:27.444Z,7.20
2023-02-19T19:57:32.001Z,13.00
2023-02-19T19:59:36.899Z,6.17
2023-02-19T20:01:41.413Z,7.13
2023-02-19T20:03:44.363Z,8.97
2023-02-19T20:05:47.902Z,8.30
2023-02-19T20:07:50.896Z,9.00
2023-02-19T20:09:53.988Z,6.27
2023-02-19T20:11:57.137Z,9.63
2023-02-19T20:14:01.733Z,8.10
2023-02-19T20:16:06.096Z,8.50
2023-02-19T20:18:09.098Z,12.83
2023-02-19T20:20:12.481Z,7.90
2023-02-19T20:22:15.374Z,8.73
2023-02-19T20:24:19.185Z,10.70
2023-02-19T20:26:23.543Z,8.90
2023-02-19T20:28:26.473Z,10.60
2023-02-19T20:30:30.702Z,7.40
2023-02-19T20:32:33.658Z,9.40
2023-02-19T20:34:38.164Z,8.30
2023-02-19T20:36:43.651Z,7.87
2023-02-19T20:38:46.684Z,8.17
2023-02-19T20:40:49.793Z,10.67
2023-02-19T20:42:53.003Z,8.50
2023-02-19T20:44:57.438Z,9.50
2023-02-19T20:47:01.983Z,7.83
2023-02-19T20:49:04.822Z,11.90
2023-02-19T20:51:07.697Z,10.63
2023-02-19T20:53:11.126Z,9.90
2023-02-19T20:55:14.056Z,8.10
2023-02-19T20:57:16.920Z,12.80
2023-02-19T20:59:21.585Z,8.23
2023-02-19T21:01:27.030Z,8.33
2023-02-19T21:03:31.310Z,6.70
2023-02-19T21:05:34.276Z,7.97
2023-02-19T21:07:37.127Z,9.47
2023-02-19T21:09:40.038Z,7.23
2023-02-19T21:11:44.605Z,7.07
2023-02-19T21:13:47.791Z,8.63
2023-02-19T21:15:50.699Z,12.40
2023-02-19T21:17:53.724Z,9.90
2023-02-19T21:19:57.953Z,9.00
2023-02-19T21:22:01.138Z,11.27
2023-02-19T21:24:06.020Z,9.70
2023-02-19T21:26:08.954Z,10.07
2023-02-19T21:28:12.448Z,9.53
2023-02-19T21:30:15.461Z,10.47
2023-02-19T21:32:18.461Z,8.17
2023-02-19T21:34:23.210Z,11.40
2023-02-19T21:36:27.505Z,14.63
2023-02-19T21:38:32.403Z,9.77
2023-02-19T21:40:35.444Z,9.90
2023-02-19T21:42:38.302Z,10.00
2023-02-19T21:44:44.381Z,9.80
2023-02-19T21:46:47.294Z,11.50
2023-02-19T21:48:50.260Z,10.40
2023-02-19T21:50:53.192Z,11.00
2023-02-19T21:52:57.379Z,9.77
2023-02-19T21:55:00.257Z,9.53
2023-02-19T21:57:04.503Z,12.27
2023-02-19T21:59:07.657Z,10.27
2023-02-19T22:01:10.676Z,10.53
2023-02-19T22:03:16.270Z,13.30
2023-02-19T22:05:19.276Z,10.67
2023-02-19T22:07:22.516Z,10.93
2023-02-19T22:09:26.787Z,12.00
2023-02-19T22:11:29.767Z,15.83
2023-02-19T22:13:32.777Z,13.37
2023-02-19T22:15:35.747Z,15.17
2023-02-19T22:17:39.347Z,14.20
2023-02-19T22:19:42.336Z,16.13
2023-02-19T22:21:45.797Z,12.33
2023-02-19T22:23:49.690Z,14.83
2023-02-19T22:25:54.188Z,14.87
2023-02-19T22:27:59.440Z,16.20
2023-02-19T22:30:03.010Z,14.37
2023-02-19T22:32:06.340Z,15.27
2023-02-19T22:34:09.518Z,15.70
2023-02-19T22:36:17.246Z,15.40
2023-02-19T22:38:20.175Z,17.40
2023-02-19T22:40:23.250Z,14.00
2023-02-19T22:42:29.291Z,16.70
2023-02-19T22:44:32.168Z,16.60
2023-02-19T22:46:35.040Z,18.13
2023-02-19T22:48:37.890Z,17.57
2023-02-19T22:50:40.742Z,21.37
2023-02-19T22:52:43.562Z,17.20
2023-02-19T22:54:46.735Z,19.43
2023-02-19T22:56:49.626Z,17.73
2023-02-19T22:58:54.226Z,22.40
2023-02-19T23:00:57.095Z,18.03
2023-02-19T23:03:00.234Z,18.83
2023-02-19T23:05:03.315Z,16.43
2023-02-19T23:07:07.112Z,15.80
2023-02-19T23:09:11.748Z,17.70
2023-02-19T23:11:14.772Z,16.23
2023-02-19T23:13:17.624Z,13.93
2023-02-19T23:15:22.063Z,14.97
2023-02-19T23:17:24.890Z,15.33
2023-02-19T23:19:28.144Z,15.97
2023-02-19T23:21:31.825Z,16.60
2023-02-19T23:23:35.048Z,16.93
2023-02-19T23:25:38.057Z,15.60
2023-02-19T23:27:41.211Z,14.07
2023-02-19T23:29:44.071Z,12.80
2023-02-19T23:31:49.388Z,14.07
2023-02-19T23:33:52.362Z,11.00
2023-02-19T23:35:55.195Z,11.97
2023-02-19T23:37:58.049Z,12.77
2023-02-19T23:40:01.249Z,15.23
2023-02-19T23:42:04.466Z,11.37
2023-02-19T23:44:07.346Z,9.07
2023-02-19T23:46:11.041Z,8.53
2023-02-19T23:48:15.429Z,6.97
2023-02-19T23:50:18.713Z,7.60
2023-02-19T23:52:21.593Z,7.30
2023-02-19T23:54:24.485Z,10.60
2023-02-19T23:56:29.034Z,9.37
2023-02-19T23:58:31.874Z,8.20
